createdAt,value
2023-05-24T00:00:32.876Z,100872.76
2023-05-24T00:03:00.499Z,100872.95
2023-05-24T00:05:31.296Z,100874.73
2023-05-24T00:07:59.497Z,100871.35
2023-05-24T00:10:26.950Z,100868.86
2023-05-24T00:12:54.652Z,100874.30
2023-05-24T00:15:22.117Z,100872.79
2023-05-24T00:17:49.699Z,100872.23
2023-05-24T00:20:17.395Z,100871.34
2023-05-24T00:22:45.076Z,100869.86
2023-05-24T00:25:12.669Z,100870.95
2023-05-24T00:27:40.371Z,100870.27
2023-05-24T00:30:08.153Z,100871.35
2023-05-24T00:32:35.800Z,100869.77
2023-05-24T00:35:04.689Z,100870.36
2023-05-24T00:37:32.604Z,100868.92
2023-05-24T00:40:00.251Z,100867.09
2023-05-24T00:42:27.927Z,100869.17
2023-05-24T00:44:55.546Z,100866.66
2023-05-24T00:47:23.110Z,100868.48
2023-05-24T00:49:50.739Z,100864.99
2023-05-24T00:52:18.295Z,100866.75
2023-05-24T00:54:45.924Z,100861.58
2023-05-24T00:57:16.319Z,100865.57
2023-05-24T00:59:43.761Z,100867.15
2023-05-24T01:02:11.438Z,100866.80
2023-05-24T01:04:38.873Z,100870.63
2023-05-24T01:07:13.437Z,100872.05
2023-05-24T01:09:56.703Z,100874.61
2023-05-24T01:12:37.094Z,100877.41
2023-05-24T01:15:10.723Z,100876.03
2023-05-24T01:18:01.727Z,100873.14
2023-05-24T01:20:30.828Z,100876.77
2023-05-24T01:23:06.556Z,100875.95
2023-05-24T01:25:46.585Z,100873.59
2023-05-24T01:28:14.078Z,100873.56
2023-05-24T01:30:41.845Z,100874.34
2023-05-24T01:33:09.598Z,100876.11
2023-05-24T01:35:40.548Z,100876.06
2023-05-24T01:38:08.595Z,100870.88
2023-05-24T01:40:36.115Z,100872.00
2023-05-24T01:43:27.554Z,100872.30
2023-05-24T01:45:56.410Z,100875.57
2023-05-24T01:48:48.910Z,100874.48
2023-05-24T01:51:18.784Z,100874.32
2023-05-24T01:53:47.720Z,100876.64
2023-05-24T01:56:17.430Z,100878.23
2023-05-24T01:58:46.084Z,100879.86
2023-05-24T02:01:14.445Z,100879.77
2023-05-24T02:03:42.032Z,100875.83
2023-05-24T02:06:10.949Z,100874.86
2023-05-24T02:08:40.529Z,100876.98
2023-05-24T02:11:08.168Z,100876.07
2023-05-24T02:13:35.605Z,100872.31
2023-05-24T02:16:05.277Z,100877.97
2023-05-24T02:18:35.074Z,100876.13
2023-05-24T02:21:02.861Z,100878.45
2023-05-24T02:23:30.447Z,100878.73
2023-05-24T02:26:00.292Z,100884.68
2023-05-24T02:28:28.475Z,100884.20
2023-05-24T02:30:55.975Z,100889.67
2023-05-24T02:33:25.754Z,100889.73
2023-05-24T02:35:53.267Z,100890.13
2023-05-24T02:38:20.848Z,100892.56
2023-05-24T02:40:48.487Z,100894.08
2023-05-24T02:43:16.154Z,100895.95
2023-05-24T02:45:43.632Z,100898.23
2023-05-24T02:48:12.118Z,100898.06
2023-05-24T02:50:39.635Z,100900.30
2023-05-24T02:53:07.327Z,100905.33
2023-05-24T02:55:34.904Z,100903.52
2023-05-24T02:58:03.067Z,100902.70
2023-05-24T03:00:31.200Z,100898.27
2023-05-24T03:03:24.736Z,100898.95
2023-05-24T03:05:52.510Z,100898.61
2023-05-24T03:08:20.032Z,100906.75
2023-05-24T03:10:47.588Z,100905.59
2023-05-24T03:13:15.246Z,100906.44
2023-05-24T03:15:43.127Z,100907.38
2023-05-24T03:18:10.625Z,100913.09
2023-05-24T03:20:39.568Z,100912.20
2023-05-24T03:23:09.713Z,100917.40
2023-05-24T03:25:37.278Z,100913.89
2023-05-24T03:28:04.981Z,100916.23
2023-05-24T03:30:33.256Z,100912.98
2023-05-24T03:33:01.323Z,100910.73
2023-05-24T03:35:29.155Z,100909.25
2023-05-24T03:37:56.842Z,100903.73
2023-05-24T03:40:25.918Z,100903.64
2023-05-24T03:42:58.257Z,100899.56
2023-05-24T03:45:42.934Z,100900.70
2023-05-24T03:48:10.559Z,100903.34
2023-05-24T03:50:38.110Z,100901.81
2023-05-24T03:53:05.621Z,100906.74
2023-05-24T03:55:33.104Z,100909.42
2023-05-24T03:58:01.062Z,100907.16
2023-05-24T04:00:29.030Z,100908.27
2023-05-24T04:02:57.061Z,100902.09
2023-05-24T04:05:29.990Z,100902.14
2023-05-24T04:07:57.587Z,100904.73
2023-05-24T04:10:25.145Z,100905.05
2023-05-24T04:12:52.849Z,100908.84
2023-05-24T04:15:21.389Z,100910.54
2023-05-24T04:17:55.115Z,100914.93
2023-05-24T04:20:25.725Z,100916.02
2023-05-24T04:22:54.166Z,100923.37
2023-05-24T04:25:22.193Z,100922.97
2023-05-24T04:27:50.486Z,100919.96
2023-05-24T04:30:18.015Z,100920.30
2023-05-24T04:32:45.748Z,100919.98
2023-05-24T04:35:14.216Z,100923.56
2023-05-24T04:37:41.807Z,100919.09
2023-05-24T04:40:10.631Z,100920.85
2023-05-24T04:42:38.497Z,100919.08
2023-05-24T04:45:07.192Z,100916.87
2023-05-24T04:47:34.753Z,100917.98
2023-05-24T04:50:02.387Z,100915.45
2023-05-24T04:52:30.669Z,100915.37
2023-05-24T04:54:58.331Z,100910.97
2023-05-24T04:57:25.847Z,100907.96
2023-05-24T04:59:53.380Z,100906.69
2023-05-24T05:02:22.536Z,100903.83
2023-05-24T05:04:50.138Z,100905.11
2023-05-24T05:07:17.932Z,100902.63
2023-05-24T05:09:45.451Z,100901.94
2023-05-24T05:12:12.980Z,100907.11
2023-05-24T05:14:40.590Z,100913.45
2023-05-24T05:17:08.157Z,100914.44
2023-05-24T05:19:35.914Z,100913.52
2023-05-24T05:22:03.371Z,100914.83
2023-05-24T05:24:31.677Z,100917.27
2023-05-24T05:26:59.204Z,100915.02
2023-05-24T05:29:26.733Z,100918.84
2023-05-24T05:31:54.265Z,100919.91
2023-05-24T05:34:21.934Z,100920.91
2023-05-24T05:36:49.503Z,100919.69
2023-05-24T05:39:17.089Z,100921.70
2023-05-24T05:41:46.587Z,100924.01
2023-05-24T05:44:17.150Z,100927.27
2023-05-24T05:46:46.474Z,100930.41
2023-05-24T05:49:15.527Z,100933.17
2023-05-24T05:51:42.998Z,100930.41
2023-05-24T05:54:14.608Z,100928.74
2023-05-24T05:56:48.864Z,100933.73
2023-05-24T05:59:16.510Z,100933.34
2023-05-24T06:01:45.796Z,100936.39
2023-05-24T06:04:14.375Z,100937.58
2023-05-24T06:06:42.232Z,100934.23
2023-05-24T06:09:11.422Z,100937.35
2023-05-24T06:11:56.775Z,100937.92
2023-05-24T06:14:27.657Z,100936.51
2023-05-24T06:16:56.294Z,100930.79
2023-05-24T06:19:25.364Z,100934.00
2023-05-24T06:21:53.114Z,100935.10
2023-05-24T06:24:21.904Z,100937.36
2023-05-24T06:26:50.990Z,100942.95
2023-05-24T06:29:22.962Z,100945.13
2023-05-24T06:31:51.573Z,100943.34
2023-05-24T06:34:21.598Z,100941.92
2023-05-24T06:36:51.609Z,100938.87
2023-05-24T06:39:19.615Z,100932.64
2023-05-24T06:41:47.540Z,100932.12
2023-05-24T06:44:16.581Z,100930.19
2023-05-24T06:46:44.541Z,100928.05
2023-05-24T06:49:12.733Z,100923.43
2023-05-24T06:51:48.604Z,100920.16
2023-05-24T06:54:16.892Z,100919.06
2023-05-24T06:56:58.984Z,100917.69
2023-05-24T06:59:27.802Z,100920.30
2023-05-24T07:01:59.983Z,100925.06
2023-05-24T07:04:29.456Z,100924.96
2023-05-24T07:06:58.079Z,100922.63
2023-05-24T07:09:25.700Z,100921.81
2023-05-24T07:11:56.382Z,100926.08
2023-05-24T07:14:31.888Z,100928.99
2023-05-24T07:17:00.067Z,100929.96
2023-05-24T07:19:36.201Z,100931.77
2023-05-24T07:22:07.557Z,100930.71
2023-05-24T07:24:36.616Z,100930.14
2023-05-24T07:27:07.527Z,100932.48
2023-05-24T07:29:35.150Z,100931.95
2023-05-24T07:32:02.953Z,100934.46
2023-05-24T07:34:31.862Z,100937.05
2023-05-24T07:37:00.893Z,100943.11
2023-05-24T07:39:31.259Z,100943.73
2023-05-24T07:41:58.831Z,100945.39
2023-05-24T07:44:26.449Z,100945.23
2023-05-24T07:46:55.834Z,100944.18
2023-05-24T07:49:24.119Z,100946.96
2023-05-24T07:51:52.296Z,100943.98
2023-05-24T07:54:20.245Z,100944.42
2023-05-24T07:56:47.969Z,100947.77
2023-05-24T07:59:19.346Z,100944.90
2023-05-24T08:01:48.574Z,100943.60
2023-05-24T08:04:16.434Z,100940.20
2023-05-24T08:06:44.074Z,100942.20
2023-05-24T08:09:12.461Z,100943.60
2023-05-24T08:11:40.097Z,100942.16
2023-05-24T08:14:07.704Z,100944.05
2023-05-24T08:16:35.703Z,100944.61
2023-05-24T08:19:03.376Z,100950.77
2023-05-24T08:21:31.989Z,100953.95
2023-05-24T08:24:00.650Z,100956.42
2023-05-24T08:26:28.275Z,100957.84
2023-05-24T08:28:55.743Z,100957.41
2023-05-24T08:31:23.422Z,100951.89
2023-05-24T08:33:51.493Z,100948.93
2023-05-24T08:36:19.213Z,100946.13
2023-05-24T08:38:46.648Z,100944.15
2023-05-24T08:41:14.315Z,100938.17
2023-05-24T08:43:42.489Z,100937.23
2023-05-24T08:46:10.080Z,100938.93
2023-05-24T08:48:44.771Z,100939.50
2023-05-24T08:51:14.649Z,100940.02
2023-05-24T08:53:42.581Z,100937.88
2023-05-24T08:56:10.752Z,100942.66
2023-05-24T08:58:41.735Z,100944.38
2023-05-24T09:01:10.862Z,100942.30
2023-05-24T09:03:38.817Z,100940.49
2023-05-24T09:06:07.428Z,100942.88
2023-05-24T09:08:35.627Z,100942.73
2023-05-24T09:11:04.712Z,100944.15
2023-05-24T09:13:35.241Z,100945.94
2023-05-24T09:16:07.178Z,100944.96
2023-05-24T09:18:34.724Z,100948.61
2023-05-24T09:21:02.269Z,100946.74
2023-05-24T09:23:29.886Z,100945.00
2023-05-24T09:26:01.788Z,100947.60
2023-05-24T09:42:30.433Z,100946.39
2023-05-24T09:45:12.310Z,100948.81
2023-05-24T09:47:42.167Z,100947.88
2023-05-24T09:50:17.693Z,100950.60
2023-05-24T09:52:45.952Z,100948.56
2023-05-24T09:55:18.155Z,100945.37
2023-05-24T09:57:50.630Z,100946.80
2023-05-24T10:00:25.280Z,100946.17
2023-05-24T10:03:07.564Z,100947.81
2023-05-24T10:05:36.070Z,100945.27
2023-05-24T10:08:05.328Z,100940.77
2023-05-24T10:10:35.894Z,100938.54
2023-05-24T10:13:03.694Z,100934.14
2023-05-24T10:15:31.481Z,100928.89
2023-05-24T10:18:00.855Z,100926.79
2023-05-24T10:20:28.694Z,100928.83
2023-05-24T10:23:00.794Z,100933.77
2023-05-24T10:25:32.972Z,100936.40
2023-05-24T10:28:07.493Z,100931.38
2023-05-24T10:30:40.633Z,100929.82
2023-05-24T10:33:08.646Z,100926.45
2023-05-24T10:35:38.422Z,100924.89
2023-05-24T10:38:09.013Z,100929.57
2023-05-24T10:40:44.838Z,100928.34
2023-05-24T10:43:13.812Z,100927.35
2023-05-24T10:45:48.878Z,100928.55
2023-05-24T10:48:17.250Z,100927.70
2023-05-24T10:50:45.292Z,100929.05
2023-05-24T10:53:34.633Z,100934.04
2023-05-24T10:56:28.137Z,100934.09
2023-05-24T10:59:01.064Z,100934.80
2023-05-24T11:01:31.249Z,100937.50
2023-05-24T11:04:17.123Z,100939.02
2023-05-24T11:06:52.561Z,100936.54
2023-05-24T11:09:20.514Z,100934.32
2023-05-24T11:11:50.235Z,100929.53
2023-05-24T11:14:28.518Z,100930.20
2023-05-24T11:16:56.968Z,100926.57
2023-05-24T11:19:48.658Z,100926.48
2023-05-24T11:22:16.730Z,100924.67
2023-05-24T11:24:47.531Z,100923.52
2023-05-24T11:27:15.393Z,100921.79
2023-05-24T11:29:48.082Z,100926.88
2023-05-24T11:32:18.987Z,100935.73
2023-05-24T11:34:52.498Z,100941.11
2023-05-24T11:37:38.571Z,100945.41
2023-05-24T11:40:16.503Z,100943.58
2023-05-24T11:42:44.822Z,100941.16
2023-05-24T11:45:14.154Z,100932.22
2023-05-24T11:47:41.957Z,100932.06
2023-05-24T11:50:10.396Z,100936.04
2023-05-24T11:52:44.326Z,100937.29
2023-05-24T11:55:16.354Z,100936.77
2023-05-24T11:57:48.085Z,100937.17
2023-05-24T12:00:38.613Z,100935.98
2023-05-24T12:03:11.607Z,100931.00
2023-05-24T12:05:43.191Z,100928.95
2023-05-24T12:08:15.858Z,100927.77
2023-05-24T12:10:44.067Z,100927.25
2023-05-24T12:13:25.780Z,100922.02
2023-05-24T12:15:57.134Z,100920.34
2023-05-24T12:18:26.836Z,100916.11
2023-05-24T12:21:11.668Z,100916.02
2023-05-24T12:23:41.592Z,100916.50
2023-05-24T12:26:09.739Z,100918.95
2023-05-24T12:28:39.170Z,100919.86
2023-05-24T12:31:07.365Z,100916.61
2023-05-24T12:33:35.978Z,100909.70
2023-05-24T12:36:03.605Z,100905.05
2023-05-24T12:38:31.747Z,100908.21
2023-05-24T12:41:12.407Z,100909.23
2023-05-24T12:43:44.762Z,100911.77
2023-05-24T12:46:14.397Z,100912.77
2023-05-24T12:48:42.514Z,100907.67
2023-05-24T12:51:12.864Z,100902.90
2023-05-24T12:53:46.767Z,100899.64
2023-05-24T12:56:14.322Z,100903.33
2023-05-24T12:58:46.048Z,100899.77
2023-05-24T13:01:14.911Z,100896.23
2023-05-24T13:03:43.307Z,100895.58
2023-05-24T13:06:11.668Z,100902.11
2023-05-24T13:08:40.979Z,100901.57
2023-05-24T13:11:16.702Z,100897.10
2023-05-24T13:13:46.356Z,100897.94
2023-05-24T13:16:17.031Z,100900.72
2023-05-24T13:18:51.258Z,100899.94
2023-05-24T13:21:22.227Z,100904.80
2023-05-24T13:23:49.952Z,100907.00
2023-05-24T13:26:20.504Z,100909.83
2023-05-24T13:29:15.043Z,100910.52
2023-05-24T13:31:38.512Z,100904.61
2023-05-24T13:34:09.542Z,100902.90
2023-05-24T13:36:38.429Z,100900.43
2023-05-24T13:41:41.921Z,100892.94
2023-05-24T13:44:10.429Z,100891.77
2023-05-24T13:46:39.677Z,100888.79
2023-05-24T13:49:07.743Z,100889.85
2023-05-24T13:51:35.816Z,100889.47
2023-05-24T13:54:05.041Z,100885.27
2023-05-24T13:56:33.349Z,100886.73
2023-05-24T13:59:02.642Z,100886.31
2023-05-24T14:01:34.962Z,100890.92
2023-05-24T14:04:06.383Z,100888.75
2023-05-24T14:06:35.743Z,100890.80
2023-05-24T14:09:08.552Z,100895.57
2023-05-24T14:11:36.924Z,100897.23
2023-05-24T14:16:37.351Z,100903.95
2023-05-24T14:19:05.377Z,100906.10
2023-05-24T14:21:33.136Z,100909.42
2023-05-24T14:24:04.634Z,100904.34
2023-05-24T14:26:38.882Z,100901.90
2023-05-24T14:29:09.979Z,100902.88
2023-05-24T14:31:42.571Z,100899.69
2023-05-24T14:34:13.617Z,100895.33
2023-05-24T14:36:43.297Z,100889.88
2023-05-24T14:39:11.281Z,100886.18
2023-05-24T14:41:39.239Z,100881.58
2023-05-24T14:44:06.939Z,100877.08
2023-05-24T14:46:34.706Z,100874.48
2023-05-24T14:49:02.863Z,100874.86
2023-05-24T14:51:30.683Z,100873.55
2023-05-24T14:53:58.603Z,100874.32
2023-05-24T14:56:26.306Z,100873.71
2023-05-24T14:58:55.156Z,100877.19
2023-05-24T15:01:23.449Z,100880.83
2023-05-24T15:03:51.630Z,100882.96
2023-05-24T15:06:19.897Z,100888.56
2023-05-24T15:08:47.540Z,100895.18
2023-05-24T15:11:19.832Z,100898.34
2023-05-24T15:13:48.658Z,100900.61
2023-05-24T15:16:16.286Z,100903.50
2023-05-24T15:18:43.904Z,100905.91
2023-05-24T15:21:11.876Z,100905.17
2023-05-24T15:23:40.052Z,100908.05
2023-05-24T15:26:08.413Z,100905.90
2023-05-24T15:28:35.977Z,100900.27
2023-05-24T15:31:03.926Z,100902.35
2023-05-24T15:33:32.910Z,100901.30
2023-05-24T15:36:00.811Z,100903.19
2023-05-24T15:38:28.515Z,100907.81
2023-05-24T15:40:56.260Z,100907.48
2023-05-24T15:43:24.034Z,100907.70
2023-05-24T15:45:51.666Z,100909.48
2023-05-24T15:48:19.473Z,100913.27
2023-05-24T15:51:32.003Z,100912.68
2023-05-24T15:53:34.852Z,100907.91
2023-05-24T15:56:02.424Z,100915.06
2023-05-24T15:58:30.022Z,100913.72
2023-05-24T16:00:57.736Z,100904.98
2023-05-24T16:03:25.434Z,100912.17
2023-05-24T16:05:53.138Z,100911.73
2023-05-24T16:08:27.879Z,100909.06
2023-05-24T16:10:56.060Z,100908.45
2023-05-24T16:13:23.813Z,100907.10
2023-05-24T16:15:54.353Z,100905.43
2023-05-24T16:18:23.495Z,100906.39
2023-05-24T16:20:52.030Z,100909.02
2023-05-24T16:23:23.246Z,100907.85
2023-05-24T16:25:54.424Z,100906.38
2023-05-24T16:28:24.385Z,100907.92
2023-05-24T16:30:58.845Z,100906.34
2023-05-24T16:33:26.302Z,100905.64
2023-05-24T16:36:02.925Z,100907.79
2023-05-24T16:38:31.351Z,100915.51
2023-05-24T16:40:59.326Z,100921.10
2023-05-24T16:43:26.906Z,100921.48
2023-05-24T16:45:55.632Z,100924.48
2023-05-24T16:48:28.715Z,100921.15
2023-05-24T16:50:56.963Z,100919.00
2023-05-24T16:53:26.302Z,100919.48
2023-05-24T16:55:55.930Z,100916.75
2023-05-24T16:58:24.787Z,100918.13
2023-05-24T17:00:54.647Z,100919.84
2023-05-24T17:03:28.686Z,100917.96
2023-05-24T17:06:00.106Z,100917.27
2023-05-24T17:08:30.267Z,100921.39
2023-05-24T17:10:59.213Z,100925.56
2023-05-24T17:13:29.690Z,100929.89
2023-05-24T17:15:57.991Z,100932.08
2023-05-24T17:18:29.663Z,100934.61
2023-05-24T17:21:01.600Z,100936.45
2023-05-24T17:23:31.180Z,100941.58
2023-05-24T17:25:59.112Z,100942.20
2023-05-24T17:28:29.755Z,100942.59
2023-05-24T17:30:58.496Z,100946.71
2023-05-24T17:33:28.055Z,100954.10
2023-05-24T17:35:56.882Z,100954.72
2023-05-24T17:38:25.261Z,100958.73
2023-05-24T17:40:59.713Z,100962.25
2023-05-24T17:43:35.462Z,100963.48
2023-05-24T17:46:07.045Z,100963.30
2023-05-24T17:48:43.056Z,100968.11
2023-05-24T17:51:10.837Z,100968.96
2023-05-24T17:53:38.579Z,100967.04
2023-05-24T17:56:06.501Z,100965.23
2023-05-24T17:58:37.510Z,100967.36
2023-05-24T18:03:46.648Z,100965.98
2023-05-24T18:06:14.321Z,100967.80
2023-05-24T18:08:44.823Z,100966.42
2023-05-24T18:11:13.889Z,100972.29
2023-05-24T18:13:42.798Z,100977.23
2023-05-24T18:16:11.168Z,100982.33
2023-05-24T18:18:39.041Z,100984.73
2023-05-24T18:21:06.748Z,100986.12
2023-05-24T18:23:37.894Z,100988.04
2023-05-24T18:26:09.597Z,100985.67
2023-05-24T18:28:37.846Z,100986.52
2023-05-24T18:31:08.781Z,100987.15
2023-05-24T18:33:37.962Z,100988.95
2023-05-24T18:36:06.396Z,100988.85
2023-05-24T18:38:33.911Z,100993.70
2023-05-24T18:41:04.146Z,101000.11
2023-05-24T18:43:33.606Z,100999.44
2023-05-24T18:46:01.670Z,101001.61
2023-05-24T18:48:29.291Z,101003.98
2023-05-24T18:50:56.800Z,101003.32
2023-05-24T18:53:25.801Z,101003.13
2023-05-24T18:55:53.343Z,100999.83
2023-05-24T18:58:20.810Z,100998.41
2023-05-24T19:00:48.370Z,101002.60
2023-05-24T19:03:16.124Z,101003.79
2023-05-24T19:05:44.302Z,101003.83
2023-05-24T19:08:12.206Z,101005.59
2023-05-24T19:10:39.833Z,101008.22
2023-05-24T19:13:07.415Z,101008.44
2023-05-24T19:15:35.458Z,101005.48
2023-05-24T19:18:03.560Z,101005.34
2023-05-24T19:20:31.318Z,101006.00
2023-05-24T19:22:59.237Z,101002.66
2023-05-24T19:25:26.943Z,100999.55
2023-05-24T19:28:00.009Z,100996.50
2023-05-24T19:30:28.313Z,100995.21
2023-05-24T19:32:56.014Z,101000.46
2023-05-24T19:35:23.581Z,100996.52
2023-05-24T19:37:52.464Z,100993.19
2023-05-24T19:40:20.599Z,100997.15
2023-05-24T19:42:48.132Z,100995.25
2023-05-24T19:45:16.580Z,100995.83
2023-05-24T19:47:45.589Z,100997.03
2023-05-24T19:50:13.064Z,100994.48
2023-05-24T19:52:40.771Z,100997.39
2023-05-24T19:55:08.764Z,100997.41
2023-05-24T19:57:36.291Z,100994.46
2023-05-24T20:00:04.859Z,100991.41
2023-05-24T20:02:38.835Z,100990.13
2023-05-24T20:05:07.177Z,100994.02
2023-05-24T20:07:34.745Z,100995.02
2023-05-24T20:10:05.334Z,100990.80
2023-05-24T20:12:34.759Z,100989.86
2023-05-24T20:15:02.373Z,100988.29
2023-05-24T20:17:29.919Z,100992.55
2023-05-24T20:19:57.512Z,100989.62
2023-05-24T20:22:25.232Z,100981.13
2023-05-24T20:24:52.750Z,100978.06
2023-05-24T20:27:20.245Z,100975.52
2023-05-24T20:29:47.969Z,100977.34
2023-05-24T20:32:16.532Z,100978.40
2023-05-24T20:34:44.217Z,100973.91
2023-05-24T20:37:11.703Z,100972.58
2023-05-24T20:39:39.258Z,100972.73
2023-05-24T20:42:08.444Z,100973.39
2023-05-24T20:44:35.916Z,100972.45
2023-05-24T20:47:03.462Z,100971.67
2023-05-24T20:49:31.008Z,100970.30
2023-05-24T20:51:58.596Z,100966.95
2023-05-24T20:54:26.167Z,100964.35
2023-05-24T20:56:53.848Z,100965.48
2023-05-24T20:59:21.350Z,100970.48
2023-05-24T21:01:48.806Z,100971.11
2023-05-24T21:04:16.475Z,100977.34
2023-05-24T21:06:44.069Z,100974.94
2023-05-24T21:09:11.649Z,100978.85
2023-05-24T21:11:39.526Z,100980.44
2023-05-24T21:14:06.993Z,100979.40
2023-05-24T21:16:34.712Z,100981.14
2023-05-24T21:19:02.300Z,100978.27
2023-05-24T21:21:29.809Z,100978.40
2023-05-24T21:23:58.114Z,100978.38
2023-05-24T21:26:26.723Z,100970.59
2023-05-24T21:28:54.241Z,100973.39
2023-05-24T21:31:21.768Z,100976.15
2023-05-24T21:33:49.271Z,100976.52
2023-05-24T21:36:18.708Z,100981.86
2023-05-24T21:38:46.240Z,100986.39
2023-05-24T21:41:13.784Z,100987.79
2023-05-24T21:43:41.948Z,100986.67
2023-05-24T21:46:09.456Z,100980.74
2023-05-24T21:48:36.900Z,100975.22
2023-05-24T21:51:04.347Z,100972.63
2023-05-24T21:53:31.767Z,100976.23
2023-05-24T21:55:59.215Z,100978.13
2023-05-24T21:58:26.707Z,100975.52
2023-05-24T22:00:54.286Z,100975.54
2023-05-24T22:03:21.900Z,100972.55
2023-05-24T22:05:49.396Z,100974.10
2023-05-24T22:08:16.929Z,100982.38
2023-05-24T22:10:44.378Z,100983.52
2023-05-24T22:13:12.309Z,100980.84
2023-05-24T22:15:39.814Z,100981.30
2023-05-24T22:18:07.405Z,100987.35
2023-05-24T22:20:36.860Z,100993.52
2023-05-24T22:23:04.512Z,100989.00
2023-05-24T22:25:32.093Z,100990.64
2023-05-24T22:27:59.569Z,100992.17
2023-05-24T22:30:27.162Z,100991.99
2023-05-24T22:32:56.076Z,100994.06
2023-05-24T22:35:23.549Z,100995.50
2023-05-24T22:37:51.141Z,100994.58
2023-05-24T22:40:18.615Z,100993.64
2023-05-24T22:42:46.174Z,100996.11
2023-05-24T22:45:14.110Z,101003.67
2023-05-24T22:47:41.714Z,101010.39
2023-05-24T22:50:09.619Z,101014.84
2023-05-24T22:52:42.701Z,101019.54
2023-05-24T22:55:11.292Z,101021.26
2023-05-24T22:57:38.812Z,101025.02
2023-05-24T23:00:08.241Z,101027.05
2023-05-24T23:02:36.551Z,101033.83
2023-05-24T23:05:04.831Z,101038.55
2023-05-24T23:07:32.738Z,101037.25
2023-05-24T23:10:00.272Z,101041.16
2023-05-24T23:12:27.757Z,101039.98
2023-05-24T23:14:58.500Z,101044.92
2023-05-24T23:17:26.531Z,101047.98
2023-05-24T23:19:54.156Z,101049.20
2023-05-24T23:22:23.937Z,101046.41
2023-05-24T23:24:51.941Z,101039.55
2023-05-24T23:27:19.511Z,101045.05
2023-05-24T23:29:47.030Z,101042.90
2023-05-24T23:32:14.681Z,101043.73
2023-05-24T23:34:42.173Z,101048.47
2023-05-24T23:37:09.700Z,101048.39
2023-05-24T23:39:38.201Z,101050.16
2023-05-24T23:42:06.855Z,101053.55
2023-05-24T23:44:34.384Z,101060.61
2023-05-24T23:47:02.180Z,101064.30
2023-05-24T23:49:29.901Z,101063.89
2023-05-24T23:51:57.486Z,101065.04
2023-05-24T23:54:25.066Z,101062.91
2023-05-24T23:56:52.504Z,101061.21
2023-05-24T23:59:19.986Z,101053.35
